sensor_id;sensor_type;location;lat;lon;timestamp;P1;durP1;ratioP1;P2;durP2;ratioP2
77838;SDS011;67034;43.226;27.932;2023-07-13T00:01:30;13.45;;;11.15;;
77838;SDS011;67034;43.226;27.932;2023-07-13T00:03:57;14.48;;;12.10;;
77838;SDS011;67034;43.226;27.932;2023-07-13T00:06:23;17.48;;;13.93;;
77838;SDS011;67034;43.226;27.932;2023-07-13T00:08:49;14.30;;;12.43;;
77838;SDS011;67034;43.226;27.932;2023-07-13T00:11:15;14.35;;;12.85;;
77838;SDS011;67034;43.226;27.932;2023-07-13T00:13:43;15.10;;;12.63;;
77838;SDS011;67034;43.226;27.932;2023-07-13T00:16:09;17.60;;;14.07;;
77838;SDS011;67034;43.226;27.932;2023-07-13T00:18:36;16.02;;;12.40;;
77838;SDS011;67034;43.226;27.932;2023-07-13T00:21:03;16.85;;;11.32;;
77838;SDS011;67034;43.226;27.932;2023-07-13T00:23:31;18.92;;;12.57;;
77838;SDS011;67034;43.226;27.932;2023-07-13T00:25:59;13.90;;;12.07;;
77838;SDS011;67034;43.226;27.932;2023-07-13T00:28:25;14.50;;;12.65;;
77838;SDS011;67034;43.226;27.932;2023-07-13T00:30:52;14.38;;;12.55;;
77838;SDS011;67034;43.226;27.932;2023-07-13T00:33:17;12.80;;;11.55;;
77838;SDS011;67034;43.226;27.932;2023-07-13T00:35:43;14.55;;;11.65;;
77838;SDS011;67034;43.226;27.932;2023-07-13T00:38:09;13.55;;;10.95;;
77838;SDS011;67034;43.226;27.932;2023-07-13T00:40:34;14.20;;;11.57;;
77838;SDS011;67034;43.226;27.932;2023-07-13T00:43:00;12.60;;;10.38;;
77838;SDS011;67034;43.226;27.932;2023-07-13T00:48:31;12.60;;;10.85;;
77838;SDS011;67034;43.226;27.932;2023-07-13T00:51:01;12.30;;;10.93;;
77838;SDS011;67034;43.226;27.932;2023-07-13T00:53:28;13.13;;;11.55;;
77838;SDS011;67034;43.226;27.932;2023-07-13T00:55:56;15.38;;;11.32;;
77838;SDS011;67034;43.226;27.932;2023-07-13T00:58:22;13.05;;;11.10;;
77838;SDS011;67034;43.226;27.932;2023-07-13T01:00:49;14.07;;;11.02;;
77838;SDS011;67034;43.226;27.932;2023-07-13T01:03:16;14.20;;;11.38;;
77838;SDS011;67034;43.226;27.932;2023-07-13T01:05:44;13.85;;;12.18;;
77838;SDS011;67034;43.226;27.932;2023-07-13T01:08:13;18.63;;;12.77;;
77838;SDS011;67034;43.226;27.932;2023-07-13T01:10:39;18.20;;;12.70;;
77838;SDS011;67034;43.226;27.932;2023-07-13T01:13:05;15.90;;;13.00;;
77838;SDS011;67034;43.226;27.932;2023-07-13T01:15:35;16.63;;;13.48;;
77838;SDS011;67034;43.226;27.932;2023-07-13T01:18:03;15.15;;;13.48;;
77838;SDS011;67034;43.226;27.932;2023-07-13T01:20:29;15.88;;;12.43;;
77838;SDS011;67034;43.226;27.932;2023-07-13T01:22:57;14.98;;;12.48;;
77838;SDS011;67034;43.226;27.932;2023-07-13T01:25:24;15.05;;;12.18;;
77838;SDS011;67034;43.226;27.932;2023-07-13T01:27:50;16.63;;;12.80;;
77838;SDS011;67034;43.226;27.932;2023-07-13T01:30:16;17.77;;;13.00;;
77838;SDS011;67034;43.226;27.932;2023-07-13T01:32:41;15.60;;;12.27;;
77838;SDS011;67034;43.226;27.932;2023-07-13T01:35:07;14.88;;;12.50;;
77838;SDS011;67034;43.226;27.932;2023-07-13T01:37:33;17.02;;;12.30;;
77838;SDS011;67034;43.226;27.932;2023-07-13T01:40:02;17.85;;;12.50;;
77838;SDS011;67034;43.226;27.932;2023-07-13T01:42:29;15.57;;;12.65;;
77838;SDS011;67034;43.226;27.932;2023-07-13T01:44:55;16.05;;;12.80;;
77838;SDS011;67034;43.226;27.932;2023-07-13T01:47:21;14.93;;;11.38;;
77838;SDS011;67034;43.226;27.932;2023-07-13T01:49:47;14.05;;;11.85;;
77838;SDS011;67034;43.226;27.932;2023-07-13T01:52:13;15.63;;;12.07;;
77838;SDS011;67034;43.226;27.932;2023-07-13T01:54:39;15.23;;;12.88;;
77838;SDS011;67034;43.226;27.932;2023-07-13T01:57:06;14.20;;;12.45;;
77838;SDS011;67034;43.226;27.932;2023-07-13T01:59:31;13.55;;;11.80;;
77838;SDS011;67034;43.226;27.932;2023-07-13T02:01:58;16.02;;;14.20;;
77838;SDS011;67034;43.226;27.932;2023-07-13T02:04:24;15.20;;;13.18;;
77838;SDS011;67034;43.226;27.932;2023-07-13T02:06:49;14.82;;;13.02;;
77838;SDS011;67034;43.226;27.932;2023-07-13T02:09:15;13.68;;;12.25;;
77838;SDS011;67034;43.226;27.932;2023-07-13T02:11:41;15.68;;;12.90;;
77838;SDS011;67034;43.226;27.932;2023-07-13T02:14:08;16.70;;;12.57;;
77838;SDS011;67034;43.226;27.932;2023-07-13T02:16:34;14.13;;;11.55;;
77838;SDS011;67034;43.226;27.932;2023-07-13T02:18:59;14.48;;;11.65;;
77838;SDS011;67034;43.226;27.932;2023-07-13T02:21:25;13.23;;;11.73;;
77838;SDS011;67034;43.226;27.932;2023-07-13T02:23:51;13.98;;;12.45;;
77838;SDS011;67034;43.226;27.932;2023-07-13T02:26:17;13.15;;;11.50;;
77838;SDS011;67034;43.226;27.932;2023-07-13T02:28:43;15.30;;;11.50;;
77838;SDS011;67034;43.226;27.932;2023-07-13T02:31:12;14.02;;;10.57;;
77838;SDS011;67034;43.226;27.932;2023-07-13T02:33:39;14.27;;;11.30;;
77838;SDS011;67034;43.226;27.932;2023-07-13T02:36:05;12.05;;;10.75;;
77838;SDS011;67034;43.226;27.932;2023-07-13T02:38:31;12.95;;;11.63;;
77838;SDS011;67034;43.226;27.932;2023-07-13T02:40:58;12.75;;;11.43;;
77838;SDS011;67034;43.226;27.932;2023-07-13T02:43:24;14.00;;;12.38;;
77838;SDS011;67034;43.226;27.932;2023-07-13T02:45:50;11.98;;;10.73;;
77838;SDS011;67034;43.226;27.932;2023-07-13T02:48:17;14.93;;;12.25;;
77838;SDS011;67034;43.226;27.932;2023-07-13T02:50:43;15.70;;;11.52;;
77838;SDS011;67034;43.226;27.932;2023-07-13T02:53:09;12.77;;;11.40;;
77838;SDS011;67034;43.226;27.932;2023-07-13T02:55:35;15.57;;;10.77;;
77838;SDS011;67034;43.226;27.932;2023-07-13T02:58:01;13.88;;;11.05;;
77838;SDS011;67034;43.226;27.932;2023-07-13T03:00:26;16.27;;;10.68;;
77838;SDS011;67034;43.226;27.932;2023-07-13T03:02:52;17.92;;;11.07;;
77838;SDS011;67034;43.226;27.932;2023-07-13T03:05:20;15.40;;;11.43;;
77838;SDS011;67034;43.226;27.932;2023-07-13T03:07:45;14.60;;;11.02;;
77838;SDS011;67034;43.226;27.932;2023-07-13T03:10:11;14.05;;;11.30;;
77838;SDS011;67034;43.226;27.932;2023-07-13T03:12:37;13.95;;;10.68;;
77838;SDS011;67034;43.226;27.932;2023-07-13T03:15:03;14.70;;;11.35;;
77838;SDS011;67034;43.226;27.932;2023-07-13T03:17:29;12.73;;;10.93;;
77838;SDS011;67034;43.226;27.932;2023-07-13T03:19:55;14.65;;;11.02;;
77838;SDS011;67034;43.226;27.932;2023-07-13T03:22:23;11.75;;;10.35;;
77838;SDS011;67034;43.226;27.932;2023-07-13T03:24:49;14.57;;;10.50;;
77838;SDS011;67034;43.226;27.932;2023-07-13T03:27:15;11.88;;;10.32;;
77838;SDS011;67034;43.226;27.932;2023-07-13T03:29:41;14.68;;;10.48;;
77838;SDS011;67034;43.226;27.932;2023-07-13T03:32:07;15.27;;;11.20;;
77838;SDS011;67034;43.226;27.932;2023-07-13T03:34:33;20.13;;;11.60;;
77838;SDS011;67034;43.226;27.932;2023-07-13T03:36:59;13.20;;;10.40;;
77838;SDS011;67034;43.226;27.932;2023-07-13T03:39:26;15.60;;;11.07;;
77838;SDS011;67034;43.226;27.932;2023-07-13T03:41:51;13.15;;;10.38;;
77838;SDS011;67034;43.226;27.932;2023-07-13T03:44:18;13.48;;;11.43;;
77838;SDS011;67034;43.226;27.932;2023-07-13T03:46:44;12.43;;;10.20;;
77838;SDS011;67034;43.226;27.932;2023-07-13T03:49:10;13.85;;;10.70;;
77838;SDS011;67034;43.226;27.932;2023-07-13T03:51:36;12.52;;;10.65;;
77838;SDS011;67034;43.226;27.932;2023-07-13T03:54:02;11.73;;;10.57;;
77838;SDS011;67034;43.226;27.932;2023-07-13T03:56:29;11.98;;;10.18;;
77838;SDS011;67034;43.226;27.932;2023-07-13T03:58:57;13.00;;;10.73;;
77838;SDS011;67034;43.226;27.932;2023-07-13T04:01:23;15.38;;;10.90;;
77838;SDS011;67034;43.226;27.932;2023-07-13T04:03:50;13.73;;;10.85;;
77838;SDS011;67034;43.226;27.932;2023-07-13T04:06:16;11.20;;;9.98;;
77838;SDS011;67034;43.226;27.932;2023-07-13T04:08:46;12.15;;;10.88;;
77838;SDS011;67034;43.226;27.932;2023-07-13T04:11:13;12.52;;;10.40;;
77838;SDS011;67034;43.226;27.932;2023-07-13T04:13:40;15.38;;;11.38;;
77838;SDS011;67034;43.226;27.932;2023-07-13T04:16:05;12.52;;;11.10;;
77838;SDS011;67034;43.226;27.932;2023-07-13T04:18:32;15.90;;;13.05;;
77838;SDS011;67034;43.226;27.932;2023-07-13T04:20:57;13.10;;;11.13;;
77838;SDS011;67034;43.226;27.932;2023-07-13T04:23:23;12.95;;;11.55;;
77838;SDS011;67034;43.226;27.932;2023-07-13T04:25:49;14.15;;;11.13;;
77838;SDS011;67034;43.226;27.932;2023-07-13T04:28:21;13.57;;;12.02;;
77838;SDS011;67034;43.226;27.932;2023-07-13T04:30:49;18.25;;;12.07;;
77838;SDS011;67034;43.226;27.932;2023-07-13T04:33:15;14.25;;;11.65;;
77838;SDS011;67034;43.226;27.932;2023-07-13T04:35:47;15.02;;;11.45;;
77838;SDS011;67034;43.226;27.932;2023-07-13T04:38:13;12.00;;;10.50;;
77838;SDS011;67034;43.226;27.932;2023-07-13T04:40:42;12.73;;;10.43;;
77838;SDS011;67034;43.226;27.932;2023-07-13T04:43:08;15.05;;;10.45;;
77838;SDS011;67034;43.226;27.932;2023-07-13T04:45:34;17.95;;;10.02;;
77838;SDS011;67034;43.226;27.932;2023-07-13T04:48:02;12.40;;;9.15;;
77838;SDS011;67034;43.226;27.932;2023-07-13T04:50:28;13.75;;;9.80;;
77838;SDS011;67034;43.226;27.932;2023-07-13T04:52:53;12.82;;;9.38;;
77838;SDS011;67034;43.226;27.932;2023-07-13T04:55:19;13.10;;;9.63;;
77838;SDS011;67034;43.226;27.932;2023-07-13T04:57:45;12.18;;;10.48;;
77838;SDS011;67034;43.226;27.932;2023-07-13T05:00:12;11.82;;;9.38;;
77838;SDS011;67034;43.226;27.932;2023-07-13T05:02:41;12.00;;;9.93;;
77838;SDS011;67034;43.226;27.932;2023-07-13T05:05:10;12.02;;;8.85;;
77838;SDS011;67034;43.226;27.932;2023-07-13T05:07:36;12.52;;;9.68;;
77838;SDS011;67034;43.226;27.932;2023-07-13T05:10:02;13.93;;;10.73;;
77838;SDS011;67034;43.226;27.932;2023-07-13T05:12:29;10.52;;;9.38;;
77838;SDS011;67034;43.226;27.932;2023-07-13T05:14:54;14.45;;;9.88;;
77838;SDS011;67034;43.226;27.932;2023-07-13T05:17:20;14.35;;;11.07;;
77838;SDS011;67034;43.226;27.932;2023-07-13T05:19:46;13.35;;;10.20;;
77838;SDS011;67034;43.226;27.932;2023-07-13T05:22:13;12.98;;;9.68;;
77838;SDS011;67034;43.226;27.932;2023-07-13T05:24:39;12.43;;;9.90;;
77838;SDS011;67034;43.226;27.932;2023-07-13T05:27:05;16.02;;;10.13;;
77838;SDS011;67034;43.226;27.932;2023-07-13T05:29:31;11.93;;;9.50;;
77838;SDS011;67034;43.226;27.932;2023-07-13T05:31:57;13.35;;;10.18;;
77838;SDS011;67034;43.226;27.932;2023-07-13T05:34:22;15.32;;;10.50;;
77838;SDS011;67034;43.226;27.932;2023-07-13T05:36:48;15.57;;;10.18;;
77838;SDS011;67034;43.226;27.932;2023-07-13T05:39:15;12.57;;;8.60;;
77838;SDS011;67034;43.226;27.932;2023-07-13T05:41:42;11.48;;;9.90;;
77838;SDS011;67034;43.226;27.932;2023-07-13T05:44:07;14.13;;;10.35;;
77838;SDS011;67034;43.226;27.932;2023-07-13T05:46:33;13.40;;;9.75;;
77838;SDS011;67034;43.226;27.932;2023-07-13T05:48:59;19.08;;;12.00;;
77838;SDS011;67034;43.226;27.932;2023-07-13T05:51:25;14.10;;;10.90;;
77838;SDS011;67034;43.226;27.932;2023-07-13T05:53:50;14.45;;;10.23;;
77838;SDS011;67034;43.226;27.932;2023-07-13T05:56:17;15.65;;;10.20;;
77838;SDS011;67034;43.226;27.932;2023-07-13T05:58:44;12.18;;;10.80;;
77838;SDS011;67034;43.226;27.932;2023-07-13T06:01:11;12.88;;;10.43;;
77838;SDS011;67034;43.226;27.932;2023-07-13T06:03:38;14.55;;;10.70;;
77838;SDS011;67034;43.226;27.932;2023-07-13T06:06:05;15.10;;;11.67;;
77838;SDS011;67034;43.226;27.932;2023-07-13T06:08:31;13.07;;;10.65;;
77838;SDS011;67034;43.226;27.932;2023-07-13T06:11:04;14.10;;;10.40;;
77838;SDS011;67034;43.226;27.932;2023-07-13T06:13:32;14.32;;;10.90;;
77838;SDS011;67034;43.226;27.932;2023-07-13T06:15:58;16.10;;;10.85;;
77838;SDS011;67034;43.226;27.932;2023-07-13T06:18:24;14.98;;;11.57;;
77838;SDS011;67034;43.226;27.932;2023-07-13T06:20:50;13.88;;;10.68;;
77838;SDS011;67034;43.226;27.932;2023-07-13T06:23:15;14.63;;;10.93;;
77838;SDS011;67034;43.226;27.932;2023-07-13T06:25:41;13.31;;;10.87;;
77838;SDS011;67034;43.226;27.932;2023-07-13T06:28:08;16.48;;;11.07;;
77838;SDS011;67034;43.226;27.932;2023-07-13T06:30:35;20.45;;;12.75;;
77838;SDS011;67034;43.226;27.932;2023-07-13T06:33:03;23.17;;;11.60;;
77838;SDS011;67034;43.226;27.932;2023-07-13T06:35:29;15.52;;;11.27;;
77838;SDS011;67034;43.226;27.932;2023-07-13T06:37:55;19.70;;;10.93;;
77838;SDS011;67034;43.226;27.932;2023-07-13T06:40:20;15.68;;;10.70;;
77838;SDS011;67034;43.226;27.932;2023-07-13T06:42:46;14.93;;;11.40;;
77838;SDS011;67034;43.226;27.932;2023-07-13T06:45:12;15.77;;;11.82;;
77838;SDS011;67034;43.226;27.932;2023-07-13T06:47:39;14.60;;;10.77;;
77838;SDS011;67034;43.226;27.932;2023-07-13T06:50:05;16.55;;;11.25;;
77838;SDS011;67034;43.226;27.932;2023-07-13T06:52:31;13.77;;;11.30;;
77838;SDS011;67034;43.226;27.932;2023-07-13T06:54:57;17.33;;;10.90;;
77838;SDS011;67034;43.226;27.932;2023-07-13T06:57:23;19.55;;;11.18;;
77838;SDS011;67034;43.226;27.932;2023-07-13T06:59:49;16.42;;;10.50;;
77838;SDS011;67034;43.226;27.932;2023-07-13T07:02:15;13.20;;;11.25;;
77838;SDS011;67034;43.226;27.932;2023-07-13T07:04:42;13.25;;;11.13;;
77838;SDS011;67034;43.226;27.932;2023-07-13T07:07:07;16.60;;;11.43;;
77838;SDS011;67034;43.226;27.932;2023-07-13T07:09:33;14.88;;;11.40;;
77838;SDS011;67034;43.226;27.932;2023-07-13T07:11:59;19.92;;;11.95;;
77838;SDS011;67034;43.226;27.932;2023-07-13T07:14:24;18.35;;;11.23;;
77838;SDS011;67034;43.226;27.932;2023-07-13T07:16:50;13.45;;;11.73;;
77838;SDS011;67034;43.226;27.932;2023-07-13T07:19:16;13.93;;;10.80;;
77838;SDS011;67034;43.226;27.932;2023-07-13T07:21:43;13.60;;;10.88;;
77838;SDS011;67034;43.226;27.932;2023-07-13T07:24:09;12.82;;;10.98;;
77838;SDS011;67034;43.226;27.932;2023-07-13T07:26:35;12.90;;;11.10;;
77838;SDS011;67034;43.226;27.932;2023-07-13T07:29:00;15.23;;;12.25;;
77838;SDS011;67034;43.226;27.932;2023-07-13T07:31:26;28.95;;;12.05;;
77838;SDS011;67034;43.226;27.932;2023-07-13T07:33:52;12.32;;;9.90;;
77838;SDS011;67034;43.226;27.932;2023-07-13T07:36:17;14.65;;;10.68;;
77838;SDS011;67034;43.226;27.932;2023-07-13T07:38:45;14.00;;;10.80;;
77838;SDS011;67034;43.226;27.932;2023-07-13T07:41:11;15.75;;;11.27;;
77838;SDS011;67034;43.226;27.932;2023-07-13T07:43:38;18.05;;;11.85;;
77838;SDS011;67034;43.226;27.932;2023-07-13T07:46:05;15.15;;;11.48;;
77838;SDS011;67034;43.226;27.932;2023-07-13T07:48:31;15.48;;;10.50;;
77838;SDS011;67034;43.226;27.932;2023-07-13T07:50:57;17.42;;;11.00;;
77838;SDS011;67034;43.226;27.932;2023-07-13T07:53:23;13.88;;;9.95;;
77838;SDS011;67034;43.226;27.932;2023-07-13T07:55:50;14.98;;;10.43;;
77838;SDS011;67034;43.226;27.932;2023-07-13T07:58:16;13.68;;;10.07;;
77838;SDS011;67034;43.226;27.932;2023-07-13T08:00:42;17.84;;;12.07;;
77838;SDS011;67034;43.226;27.932;2023-07-13T08:03:08;17.38;;;11.65;;
77838;SDS011;67034;43.226;27.932;2023-07-13T08:05:34;15.20;;;10.25;;
77838;SDS011;67034;43.226;27.932;2023-07-13T08:08:00;15.45;;;10.45;;
77838;SDS011;67034;43.226;27.932;2023-07-13T08:10:26;16.75;;;11.07;;
77838;SDS011;67034;43.226;27.932;2023-07-13T08:12:54;13.50;;;11.00;;
77838;SDS011;67034;43.226;27.932;2023-07-13T08:15:19;17.02;;;13.85;;
77838;SDS011;67034;43.226;27.932;2023-07-13T08:17:46;17.67;;;11.30;;
77838;SDS011;67034;43.226;27.932;2023-07-13T08:20:12;12.82;;;10.35;;
77838;SDS011;67034;43.226;27.932;2023-07-13T08:22:37;16.15;;;10.90;;
77838;SDS011;67034;43.226;27.932;2023-07-13T08:25:05;24.98;;;11.75;;
77838;SDS011;67034;43.226;27.932;2023-07-13T08:27:33;14.27;;;10.93;;
77838;SDS011;67034;43.226;27.932;2023-07-13T08:30:00;13.88;;;11.38;;
77838;SDS011;67034;43.226;27.932;2023-07-13T08:32:26;13.35;;;11.30;;
77838;SDS011;67034;43.226;27.932;2023-07-13T08:34:52;22.70;;;12.88;;
77838;SDS011;67034;43.226;27.932;2023-07-13T08:37:18;19.20;;;12.02;;
77838;SDS011;67034;43.226;27.932;2023-07-13T08:39:45;17.27;;;12.05;;
77838;SDS011;67034;43.226;27.932;2023-07-13T08:42:12;19.45;;;12.05;;
77838;SDS011;67034;43.226;27.932;2023-07-13T08:44:44;19.13;;;12.18;;
77838;SDS011;67034;43.226;27.932;2023-07-13T08:47:19;14.30;;;10.73;;
77838;SDS011;67034;43.226;27.932;2023-07-13T08:49:47;15.43;;;12.10;;
77838;SDS011;67034;43.226;27.932;2023-07-13T08:52:15;19.85;;;12.07;;
77838;SDS011;67034;43.226;27.932;2023-07-13T08:54:50;12.88;;;10.57;;
77838;SDS011;67034;43.226;27.932;2023-07-13T08:57:19;15.00;;;11.52;;
77838;SDS011;67034;43.226;27.932;2023-07-13T08:59:46;13.65;;;12.35;;
77838;SDS011;67034;43.226;27.932;2023-07-13T09:02:25;19.87;;;12.67;;
77838;SDS011;67034;43.226;27.932;2023-07-13T09:04:53;15.05;;;12.57;;
77838;SDS011;67034;43.226;27.932;2023-07-13T09:07:26;16.83;;;12.95;;
77838;SDS011;67034;43.226;27.932;2023-07-13T09:10:03;18.92;;;12.05;;
77838;SDS011;67034;43.226;27.932;2023-07-13T09:12:40;17.90;;;13.02;;
77838;SDS011;67034;43.226;27.932;2023-07-13T09:20:14;18.17;;;12.80;;
77838;SDS011;67034;43.226;27.932;2023-07-13T09:22:48;16.33;;;11.50;;
77838;SDS011;67034;43.226;27.932;2023-07-13T09:25:20;15.93;;;13.20;;
77838;SDS011;67034;43.226;27.932;2023-07-13T09:27:52;17.15;;;13.07;;
77838;SDS011;67034;43.226;27.932;2023-07-13T09:30:23;14.77;;;11.27;;
77838;SDS011;67034;43.226;27.932;2023-07-13T09:32:56;15.23;;;11.50;;
77838;SDS011;67034;43.226;27.932;2023-07-13T09:35:25;15.07;;;11.27;;
77838;SDS011;67034;43.226;27.932;2023-07-13T09:37:56;13.20;;;11.88;;
77838;SDS011;67034;43.226;27.932;2023-07-13T09:40:25;13.98;;;10.90;;
77838;SDS011;67034;43.226;27.932;2023-07-13T09:43:01;15.98;;;12.50;;
77838;SDS011;67034;43.226;27.932;2023-07-13T09:45:29;13.63;;;11.88;;
77838;SDS011;67034;43.226;27.932;2023-07-13T09:48:05;20.85;;;12.32;;
77838;SDS011;67034;43.226;27.932;2023-07-13T09:50:33;13.77;;;11.90;;
77838;SDS011;67034;43.226;27.932;2023-07-13T09:53:00;19.55;;;12.77;;
77838;SDS011;67034;43.226;27.932;2023-07-13T09:55:29;15.73;;;11.57;;
77838;SDS011;67034;43.226;27.932;2023-07-13T09:57:56;19.83;;;12.65;;
77838;SDS011;67034;43.226;27.932;2023-07-13T10:00:23;18.45;;;13.27;;
77838;SDS011;67034;43.226;27.932;2023-07-13T10:02:58;15.63;;;13.32;;
77838;SDS011;67034;43.226;27.932;2023-07-13T10:05:30;14.25;;;12.65;;
77838;SDS011;67034;43.226;27.932;2023-07-13T10:08:03;15.05;;;12.20;;
77838;SDS011;67034;43.226;27.932;2023-07-13T10:10:32;16.60;;;12.57;;
77838;SDS011;67034;43.226;27.932;2023-07-13T10:13:01;16.05;;;12.70;;
77838;SDS011;67034;43.226;27.932;2023-07-13T10:15:28;15.60;;;12.57;;
77838;SDS011;67034;43.226;27.932;2023-07-13T10:17:54;14.75;;;11.38;;
77838;SDS011;67034;43.226;27.932;2023-07-13T10:20:25;14.95;;;12.02;;
77838;SDS011;67034;43.226;27.932;2023-07-13T10:22:54;15.95;;;11.27;;
77838;SDS011;67034;43.226;27.932;2023-07-13T10:25:24;15.85;;;12.50;;
77838;SDS011;67034;43.226;27.932;2023-07-13T10:27:52;14.45;;;12.20;;
77838;SDS011;67034;43.226;27.932;2023-07-13T10:30:21;16.73;;;13.13;;
77838;SDS011;67034;43.226;27.932;2023-07-13T10:32:50;19.02;;;12.98;;
77838;SDS011;67034;43.226;27.932;2023-07-13T10:35:18;20.67;;;13.25;;
77838;SDS011;67034;43.226;27.932;2023-07-13T10:37:48;17.17;;;12.50;;
77838;SDS011;67034;43.226;27.932;2023-07-13T10:40:19;19.73;;;13.50;;
77838;SDS011;67034;43.226;27.932;2023-07-13T10:42:51;16.13;;;14.05;;
77838;SDS011;67034;43.226;27.932;2023-07-13T10:45:20;13.90;;;12.35;;
77838;SDS011;67034;43.226;27.932;2023-07-13T10:47:47;13.52;;;12.30;;
77838;SDS011;67034;43.226;27.932;2023-07-13T10:50:17;16.90;;;12.88;;
77838;SDS011;67034;43.226;27.932;2023-07-13T10:52:47;15.65;;;14.07;;
77838;SDS011;67034;43.226;27.932;2023-07-13T10:55:36;17.23;;;13.02;;
77838;SDS011;67034;43.226;27.932;2023-07-13T10:58:14;14.10;;;11.60;;
77838;SDS011;67034;43.226;27.932;2023-07-13T11:00:46;13.95;;;12.50;;
77838;SDS011;67034;43.226;27.932;2023-07-13T11:03:14;18.33;;;12.75;;
77838;SDS011;67034;43.226;27.932;2023-07-13T11:05:43;14.32;;;12.85;;
77838;SDS011;67034;43.226;27.932;2023-07-13T11:08:13;19.10;;;12.85;;
77838;SDS011;67034;43.226;27.932;2023-07-13T11:10:48;15.05;;;13.45;;
77838;SDS011;67034;43.226;27.932;2023-07-13T11:16:36;15.18;;;13.65;;
77838;SDS011;67034;43.226;27.932;2023-07-13T11:22:02;19.40;;;12.43;;
77838;SDS011;67034;43.226;27.932;2023-07-13T11:27:49;15.48;;;13.40;;
77838;SDS011;67034;43.226;27.932;2023-07-13T11:30:23;18.38;;;13.93;;
77838;SDS011;67034;43.226;27.932;2023-07-13T11:33:02;15.68;;;13.98;;
77838;SDS011;67034;43.226;27.932;2023-07-13T11:35:36;15.40;;;13.45;;
77838;SDS011;67034;43.226;27.932;2023-07-13T11:38:09;19.92;;;13.35;;
77838;SDS011;67034;43.226;27.932;2023-07-13T11:40:40;15.18;;;12.73;;
77838;SDS011;67034;43.226;27.932;2023-07-13T11:43:10;15.15;;;13.40;;
77838;SDS011;67034;43.226;27.932;2023-07-13T11:45:39;17.38;;;14.07;;
77838;SDS011;67034;43.226;27.932;2023-07-13T11:48:16;21.15;;;14.32;;
77838;SDS011;67034;43.226;27.932;2023-07-13T11:50:43;15.76;;;14.03;;
77838;SDS011;67034;43.226;27.932;2023-07-13T11:53:16;20.75;;;13.93;;
77838;SDS011;67034;43.226;27.932;2023-07-13T11:55:42;13.38;;;12.00;;
77838;SDS011;67034;43.226;27.932;2023-07-13T11:58:09;15.65;;;11.88;;
77838;SDS011;67034;43.226;27.932;2023-07-13T12:00:36;16.63;;;13.65;;
77838;SDS011;67034;43.226;27.932;2023-07-13T12:03:03;16.30;;;13.40;;
77838;SDS011;67034;43.226;27.932;2023-07-13T12:05:30;14.95;;;13.43;;
77838;SDS011;67034;43.226;27.932;2023-07-13T12:07:57;14.70;;;13.25;;
77838;SDS011;67034;43.226;27.932;2023-07-13T12:10:24;15.68;;;12.18;;
77838;SDS011;67034;43.226;27.932;2023-07-13T12:12:54;13.88;;;12.48;;
77838;SDS011;67034;43.226;27.932;2023-07-13T12:15:23;12.90;;;10.68;;
77838;SDS011;67034;43.226;27.932;2023-07-13T12:17:56;13.90;;;12.43;;
77838;SDS011;67034;43.226;27.932;2023-07-13T12:20:23;14.95;;;13.40;;
77838;SDS011;67034;43.226;27.932;2023-07-13T12:22:51;18.02;;;14.02;;
77838;SDS011;67034;43.226;27.932;2023-07-13T12:25:17;16.95;;;13.85;;
77838;SDS011;67034;43.226;27.932;2023-07-13T12:27:46;14.75;;;12.82;;
77838;SDS011;67034;43.226;27.932;2023-07-13T12:30:24;13.68;;;12.27;;
77838;SDS011;67034;43.226;27.932;2023-07-13T12:32:59;18.83;;;13.15;;
77838;SDS011;67034;43.226;27.932;2023-07-13T12:35:25;16.10;;;13.85;;
77838;SDS011;67034;43.226;27.932;2023-07-13T12:37:54;16.20;;;13.05;;
77838;SDS011;67034;43.226;27.932;2023-07-13T12:40:25;15.90;;;12.88;;
77838;SDS011;67034;43.226;27.932;2023-07-13T12:42:54;18.08;;;12.10;;
77838;SDS011;67034;43.226;27.932;2023-07-13T12:45:20;18.23;;;13.02;;
77838;SDS011;67034;43.226;27.932;2023-07-13T12:47:52;16.92;;;13.55;;
77838;SDS011;67034;43.226;27.932;2023-07-13T12:50:19;18.20;;;12.75;;
77838;SDS011;67034;43.226;27.932;2023-07-13T12:52:50;16.08;;;12.20;;
77838;SDS011;67034;43.226;27.932;2023-07-13T12:55:18;14.68;;;11.75;;
77838;SDS011;67034;43.226;27.932;2023-07-13T12:57:47;20.15;;;13.90;;
77838;SDS011;67034;43.226;27.932;2023-07-13T13:00:22;20.52;;;12.95;;
77838;SDS011;67034;43.226;27.932;2023-07-13T13:02:51;18.17;;;11.98;;
77838;SDS011;67034;43.226;27.932;2023-07-13T13:05:18;12.13;;;10.75;;
77838;SDS011;67034;43.226;27.932;2023-07-13T13:07:48;15.65;;;11.93;;
77838;SDS011;67034;43.226;27.932;2023-07-13T13:10:14;14.38;;;11.48;;
77838;SDS011;67034;43.226;27.932;2023-07-13T13:12:40;15.68;;;11.65;;
77838;SDS011;67034;43.226;27.932;2023-07-13T13:15:07;16.95;;;11.93;;
77838;SDS011;67034;43.226;27.932;2023-07-13T13:17:33;16.90;;;13.03;;
77838;SDS011;67034;43.226;27.932;2023-07-13T13:20:01;15.73;;;11.52;;
77838;SDS011;67034;43.226;27.932;2023-07-13T13:22:27;18.55;;;12.82;;
77838;SDS011;67034;43.226;27.932;2023-07-13T13:24:53;16.30;;;11.10;;
77838;SDS011;67034;43.226;27.932;2023-07-13T13:27:20;18.35;;;11.57;;
77838;SDS011;67034;43.226;27.932;2023-07-13T13:29:50;13.20;;;11.90;;
77838;SDS011;67034;43.226;27.932;2023-07-13T13:32:17;18.38;;;12.65;;
77838;SDS011;67034;43.226;27.932;2023-07-13T13:34:44;15.75;;;11.70;;
77838;SDS011;67034;43.226;27.932;2023-07-13T13:37:16;12.88;;;11.10;;
77838;SDS011;67034;43.226;27.932;2023-07-13T13:39:44;11.18;;;10.05;;
77838;SDS011;67034;43.226;27.932;2023-07-13T13:42:10;11.88;;;10.52;;
77838;SDS011;67034;43.226;27.932;2023-07-13T13:44:36;11.15;;;9.93;;
77838;SDS011;67034;43.226;27.932;2023-07-13T13:47:02;15.02;;;11.50;;
77838;SDS011;67034;43.226;27.932;2023-07-13T13:49:29;11.90;;;10.70;;
77838;SDS011;67034;43.226;27.932;2023-07-13T13:51:56;13.43;;;11.23;;
77838;SDS011;67034;43.226;27.932;2023-07-13T13:54:23;17.40;;;12.48;;
77838;SDS011;67034;43.226;27.932;2023-07-13T13:56:51;13.55;;;11.02;;
77838;SDS011;67034;43.226;27.932;2023-07-13T13:59:18;18.55;;;12.55;;
77838;SDS011;67034;43.226;27.932;2023-07-13T14:01:45;11.82;;;10.63;;
77838;SDS011;67034;43.226;27.932;2023-07-13T14:04:14;15.65;;;11.75;;
77838;SDS011;67034;43.226;27.932;2023-07-13T14:06:42;14.38;;;11.85;;
77838;SDS011;67034;43.226;27.932;2023-07-13T14:09:08;22.52;;;14.13;;
77838;SDS011;67034;43.226;27.932;2023-07-13T14:11:38;13.43;;;12.02;;
77838;SDS011;67034;43.226;27.932;2023-07-13T14:14:08;22.90;;;12.98;;
77838;SDS011;67034;43.226;27.932;2023-07-13T14:16:37;15.27;;;12.93;;
77838;SDS011;67034;43.226;27.932;2023-07-13T14:19:03;18.55;;;13.30;;
77838;SDS011;67034;43.226;27.932;2023-07-13T14:21:29;15.25;;;11.73;;
77838;SDS011;67034;43.226;27.932;2023-07-13T14:23:55;15.65;;;13.00;;
77838;SDS011;67034;43.226;27.932;2023-07-13T14:26:22;14.18;;;12.23;;
77838;SDS011;67034;43.226;27.932;2023-07-13T14:28:51;14.23;;;12.73;;